sensor_id;sensor_type;location;lat;lon;timestamp;P1;durP1;ratioP1;P2;durP2;ratioP2
27015;SDS011;14557;0.000;0.000;2024-01-30T00:01:41;3.65;;;1.23;;
27015;SDS011;14557;0.000;0.000;2024-01-30T00:04:06;5.57;;;1.58;;
27015;SDS011;14557;0.000;0.000;2024-01-30T00:06:32;5.07;;;1.80;;
27015;SDS011;14557;0.000;0.000;2024-01-30T00:08:58;4.00;;;1.63;;
27015;SDS011;14557;0.000;0.000;2024-01-30T00:11:23;4.38;;;1.85;;
27015;SDS011;14557;0.000;0.000;2024-01-30T00:13:53;7.20;;;1.52;;
27015;SDS011;14557;0.000;0.000;2024-01-30T00:16:24;5.07;;;1.63;;
27015;SDS011;14557;0.000;0.000;2024-01-30T00:18:51;4.90;;;1.60;;
27015;SDS011;14557;0.000;0.000;2024-01-30T00:21:17;4.22;;;1.63;;
27015;SDS011;14557;0.000;0.000;2024-01-30T00:23:43;5.72;;;1.95;;
27015;SDS011;14557;0.000;0.000;2024-01-30T00:26:09;4.72;;;1.80;;
27015;SDS011;14557;0.000;0.000;2024-01-30T00:28:36;2.83;;;1.50;;
27015;SDS011;14557;0.000;0.000;2024-01-30T00:31:05;4.20;;;1.42;;
27015;SDS011;14557;0.000;0.000;2024-01-30T00:33:30;4.93;;;1.30;;
27015;SDS011;14557;0.000;0.000;2024-01-30T00:35:56;3.05;;;1.50;;
27015;SDS011;14557;0.000;0.000;2024-01-30T00:38:22;5.30;;;1.52;;
27015;SDS011;14557;0.000;0.000;2024-01-30T00:40:48;5.35;;;1.42;;
27015;SDS011;14557;0.000;0.000;2024-01-30T00:43:14;4.70;;;1.33;;
27015;SDS011;14557;0.000;0.000;2024-01-30T00:45:40;3.35;;;1.17;;
27015;SDS011;14557;0.000;0.000;2024-01-30T00:48:06;4.38;;;1.50;;
27015;SDS011;14557;0.000;0.000;2024-01-30T00:50:32;2.28;;;1.10;;
27015;SDS011;14557;0.000;0.000;2024-01-30T00:52:58;3.85;;;1.38;;
27015;SDS011;14557;0.000;0.000;2024-01-30T00:55:24;2.35;;;1.10;;
27015;SDS011;14557;0.000;0.000;2024-01-30T00:57:49;3.50;;;1.20;;
27015;SDS011;14557;0.000;0.000;2024-01-30T01:00:15;3.15;;;1.05;;
27015;SDS011;14557;0.000;0.000;2024-01-30T01:02:42;3.50;;;1.10;;
27015;SDS011;14557;0.000;0.000;2024-01-30T01:05:08;2.72;;;1.00;;
27015;SDS011;14557;0.000;0.000;2024-01-30T01:07:34;2.33;;;1.38;;
27015;SDS011;14557;0.000;0.000;2024-01-30T01:10:01;3.00;;;1.13;;
27015;SDS011;14557;0.000;0.000;2024-01-30T01:12:27;4.63;;;1.33;;
27015;SDS011;14557;0.000;0.000;2024-01-30T01:14:53;3.22;;;0.95;;
27015;SDS011;14557;0.000;0.000;2024-01-30T01:17:19;3.10;;;1.10;;
27015;SDS011;14557;0.000;0.000;2024-01-30T01:19:44;3.42;;;1.10;;
27015;SDS011;14557;0.000;0.000;2024-01-30T01:22:10;3.97;;;1.38;;
27015;SDS011;14557;0.000;0.000;2024-01-30T01:24:36;3.03;;;1.10;;
27015;SDS011;14557;0.000;0.000;2024-01-30T01:27:02;2.65;;;1.05;;
27015;SDS011;14557;0.000;0.000;2024-01-30T01:29:28;4.38;;;1.27;;
27015;SDS011;14557;0.000;0.000;2024-01-30T01:32:00;2.85;;;1.33;;
27015;SDS011;14557;0.000;0.000;2024-01-30T01:34:26;2.60;;;1.05;;
27015;SDS011;14557;0.000;0.000;2024-01-30T01:36:51;3.17;;;1.00;;
27015;SDS011;14557;0.000;0.000;2024-01-30T01:39:20;2.67;;;1.25;;
27015;SDS011;14557;0.000;0.000;2024-01-30T01:41:48;4.40;;;1.17;;
27015;SDS011;14557;0.000;0.000;2024-01-30T01:44:14;3.08;;;1.20;;
27015;SDS011;14557;0.000;0.000;2024-01-30T01:46:39;2.38;;;1.00;;
27015;SDS011;14557;0.000;0.000;2024-01-30T01:49:06;2.25;;;1.05;;
27015;SDS011;14557;0.000;0.000;2024-01-30T01:51:33;3.42;;;1.15;;
27015;SDS011;14557;0.000;0.000;2024-01-30T01:54:02;2.28;;;0.90;;
27015;SDS011;14557;0.000;0.000;2024-01-30T01:56:29;3.22;;;1.10;;
27015;SDS011;14557;0.000;0.000;2024-01-30T01:58:57;2.47;;;1.10;;
27015;SDS011;14557;0.000;0.000;2024-01-30T02:01:28;2.55;;;1.15;;
27015;SDS011;14557;0.000;0.000;2024-01-30T02:03:56;1.85;;;1.00;;
27015;SDS011;14557;0.000;0.000;2024-01-30T02:06:21;2.40;;;1.08;;
27015;SDS011;14557;0.000;0.000;2024-01-30T02:08:48;3.60;;;0.90;;
27015;SDS011;14557;0.000;0.000;2024-01-30T02:11:14;2.08;;;0.82;;
27015;SDS011;14557;0.000;0.000;2024-01-30T02:13:41;1.92;;;0.90;;
27015;SDS011;14557;0.000;0.000;2024-01-30T02:16:07;1.98;;;0.90;;
27015;SDS011;14557;0.000;0.000;2024-01-30T02:18:33;1.83;;;0.80;;
27015;SDS011;14557;0.000;0.000;2024-01-30T02:20:59;1.95;;;0.90;;
27015;SDS011;14557;0.000;0.000;2024-01-30T02:23:29;3.17;;;1.17;;
27015;SDS011;14557;0.000;0.000;2024-01-30T02:25:58;2.17;;;0.82;;
27015;SDS011;14557;0.000;0.000;2024-01-30T02:28:24;1.80;;;0.90;;
27015;SDS011;14557;0.000;0.000;2024-01-30T02:30:50;2.65;;;1.17;;
27015;SDS011;14557;0.000;0.000;2024-01-30T02:33:15;1.67;;;1.08;;
27015;SDS011;14557;0.000;0.000;2024-01-30T02:35:41;2.60;;;1.10;;
27015;SDS011;14557;0.000;0.000;2024-01-30T02:38:07;2.25;;;0.88;;
27015;SDS011;14557;0.000;0.000;2024-01-30T02:40:33;2.15;;;0.80;;
27015;SDS011;14557;0.000;0.000;2024-01-30T02:42:59;2.35;;;0.80;;
27015;SDS011;14557;0.000;0.000;2024-01-30T02:45:26;1.83;;;0.77;;
27015;SDS011;14557;0.000;0.000;2024-01-30T02:47:52;3.17;;;1.02;;
27015;SDS011;14557;0.000;0.000;2024-01-30T02:50:17;1.88;;;0.80;;
27015;SDS011;14557;0.000;0.000;2024-01-30T02:52:43;1.45;;;0.80;;
27015;SDS011;14557;0.000;0.000;2024-01-30T02:55:09;2.67;;;1.05;;
27015;SDS011;14557;0.000;0.000;2024-01-30T02:57:35;1.73;;;0.90;;
27015;SDS011;14557;0.000;0.000;2024-01-30T03:00:01;3.15;;;0.85;;
27015;SDS011;14557;0.000;0.000;2024-01-30T03:04:54;2.47;;;0.90;;
27015;SDS011;14557;0.000;0.000;2024-01-30T03:07:20;2.45;;;0.93;;
27015;SDS011;14557;0.000;0.000;2024-01-30T03:09:46;2.10;;;0.88;;
27015;SDS011;14557;0.000;0.000;2024-01-30T03:12:11;1.77;;;0.75;;
27015;SDS011;14557;0.000;0.000;2024-01-30T03:14:37;3.47;;;1.10;;
27015;SDS011;14557;0.000;0.000;2024-01-30T03:17:03;1.75;;;0.70;;
27015;SDS011;14557;0.000;0.000;2024-01-30T03:19:29;1.88;;;0.77;;
27015;SDS011;14557;0.000;0.000;2024-01-30T03:21:54;2.05;;;0.80;;
27015;SDS011;14557;0.000;0.000;2024-01-30T03:24:20;2.67;;;0.90;;
27015;SDS011;14557;0.000;0.000;2024-01-30T03:26:46;1.55;;;0.77;;
27015;SDS011;14557;0.000;0.000;2024-01-30T03:29:12;2.03;;;0.85;;
27015;SDS011;14557;0.000;0.000;2024-01-30T03:31:38;1.77;;;0.93;;
27015;SDS011;14557;0.000;0.000;2024-01-30T03:34:05;2.60;;;0.93;;
27015;SDS011;14557;0.000;0.000;2024-01-30T03:36:31;2.17;;;1.00;;
27015;SDS011;14557;0.000;0.000;2024-01-30T03:38:58;1.95;;;0.80;;
27015;SDS011;14557;0.000;0.000;2024-01-30T03:41:24;1.70;;;0.70;;
27015;SDS011;14557;0.000;0.000;2024-01-30T03:43:50;2.30;;;0.80;;
27015;SDS011;14557;0.000;0.000;2024-01-30T03:46:16;1.23;;;0.60;;
27015;SDS011;14557;0.000;0.000;2024-01-30T03:48:41;1.55;;;0.60;;
27015;SDS011;14557;0.000;0.000;2024-01-30T03:51:07;1.70;;;0.63;;
27015;SDS011;14557;0.000;0.000;2024-01-30T03:53:34;1.88;;;0.70;;
27015;SDS011;14557;0.000;0.000;2024-01-30T03:56:00;1.33;;;0.60;;
27015;SDS011;14557;0.000;0.000;2024-01-30T03:58:26;2.28;;;0.85;;
27015;SDS011;14557;0.000;0.000;2024-01-30T04:00:51;1.70;;;0.65;;
27015;SDS011;14557;0.000;0.000;2024-01-30T04:03:17;1.48;;;0.57;;
27015;SDS011;14557;0.000;0.000;2024-01-30T04:05:43;1.27;;;0.60;;
27015;SDS011;14557;0.000;0.000;2024-01-30T04:08:10;2.42;;;0.60;;
27015;SDS011;14557;0.000;0.000;2024-01-30T04:10:35;1.45;;;0.70;;
27015;SDS011;14557;0.000;0.000;2024-01-30T04:13:01;1.55;;;0.63;;
27015;SDS011;14557;0.000;0.000;2024-01-30T04:15:27;1.98;;;0.98;;
27015;SDS011;14557;0.000;0.000;2024-01-30T04:17:56;1.65;;;0.57;;
27015;SDS011;14557;0.000;0.000;2024-01-30T04:20:23;2.13;;;0.65;;
27015;SDS011;14557;0.000;0.000;2024-01-30T04:22:49;2.95;;;0.65;;
27015;SDS011;14557;0.000;0.000;2024-01-30T04:25:15;2.97;;;0.70;;
27015;SDS011;14557;0.000;0.000;2024-01-30T04:27:41;2.15;;;0.70;;
27015;SDS011;14557;0.000;0.000;2024-01-30T04:30:07;2.58;;;0.70;;
27015;SDS011;14557;0.000;0.000;2024-01-30T04:32:33;1.55;;;0.50;;
27015;SDS011;14557;0.000;0.000;2024-01-30T04:34:58;1.83;;;0.52;;
27015;SDS011;14557;0.000;0.000;2024-01-30T04:37:24;0.90;;;0.47;;
27015;SDS011;14557;0.000;0.000;2024-01-30T04:39:50;2.15;;;0.57;;
27015;SDS011;14557;0.000;0.000;2024-01-30T04:42:16;2.72;;;0.73;;
27015;SDS011;14557;0.000;0.000;2024-01-30T04:44:42;2.08;;;0.70;;
27015;SDS011;14557;0.000;0.000;2024-01-30T04:47:08;1.58;;;0.80;;
27015;SDS011;14557;0.000;0.000;2024-01-30T04:49:36;2.13;;;0.80;;
27015;SDS011;14557;0.000;0.000;2024-01-30T04:52:02;1.77;;;0.57;;
27015;SDS011;14557;0.000;0.000;2024-01-30T04:54:28;1.20;;;0.50;;
27015;SDS011;14557;0.000;0.000;2024-01-30T04:56:53;1.20;;;0.50;;
27015;SDS011;14557;0.000;0.000;2024-01-30T04:59:19;1.75;;;0.60;;
27015;SDS011;14557;0.000;0.000;2024-01-30T05:01:45;2.97;;;0.70;;
27015;SDS011;14557;0.000;0.000;2024-01-30T05:04:11;1.75;;;0.65;;
27015;SDS011;14557;0.000;0.000;2024-01-30T05:06:37;0.93;;;0.50;;
27015;SDS011;14557;0.000;0.000;2024-01-30T05:09:03;1.55;;;0.65;;
27015;SDS011;14557;0.000;0.000;2024-01-30T05:11:29;1.40;;;0.60;;
27015;SDS011;14557;0.000;0.000;2024-01-30T05:13:56;1.33;;;0.50;;
27015;SDS011;14557;0.000;0.000;2024-01-30T05:16:21;1.00;;;0.40;;
27015;SDS011;14557;0.000;0.000;2024-01-30T05:18:48;1.13;;;0.60;;
27015;SDS011;14557;0.000;0.000;2024-01-30T05:21:13;1.33;;;0.50;;
27015;SDS011;14557;0.000;0.000;2024-01-30T05:23:40;1.13;;;0.57;;
27015;SDS011;14557;0.000;0.000;2024-01-30T05:26:07;1.15;;;0.50;;
27015;SDS011;14557;0.000;0.000;2024-01-30T05:28:33;2.00;;;0.60;;
27015;SDS011;14557;0.000;0.000;2024-01-30T05:30:59;2.35;;;0.63;;
27015;SDS011;14557;0.000;0.000;2024-01-30T05:33:24;1.10;;;0.50;;
27015;SDS011;14557;0.000;0.000;2024-01-30T05:35:50;1.35;;;0.50;;
27015;SDS011;14557;0.000;0.000;2024-01-30T05:38:19;1.63;;;0.60;;
27015;SDS011;14557;0.000;0.000;2024-01-30T05:40:45;1.50;;;0.50;;
27015;SDS011;14557;0.000;0.000;2024-01-30T05:43:11;1.48;;;0.50;;
27015;SDS011;14557;0.000;0.000;2024-01-30T05:45:37;2.08;;;0.75;;
27015;SDS011;14557;0.000;0.000;2024-01-30T05:48:03;1.27;;;0.60;;
27015;SDS011;14557;0.000;0.000;2024-01-30T05:50:29;1.65;;;0.60;;
27015;SDS011;14557;0.000;0.000;2024-01-30T05:52:55;2.15;;;0.50;;
27015;SDS011;14557;0.000;0.000;2024-01-30T05:55:21;2.72;;;0.60;;
27015;SDS011;14557;0.000;0.000;2024-01-30T05:57:47;1.90;;;0.60;;
27015;SDS011;14557;0.000;0.000;2024-01-30T06:00:13;0.90;;;0.40;;
27015;SDS011;14557;0.000;0.000;2024-01-30T06:02:39;1.15;;;0.50;;
27015;SDS011;14557;0.000;0.000;2024-01-30T06:05:04;1.65;;;0.68;;
27015;SDS011;14557;0.000;0.000;2024-01-30T06:07:31;1.63;;;0.70;;
27015;SDS011;14557;0.000;0.000;2024-01-30T06:09:56;1.77;;;0.55;;
27015;SDS011;14557;0.000;0.000;2024-01-30T06:12:22;1.25;;;0.43;;
27015;SDS011;14557;0.000;0.000;2024-01-30T06:14:48;2.00;;;0.60;;
27015;SDS011;14557;0.000;0.000;2024-01-30T06:17:14;1.13;;;0.40;;
27015;SDS011;14557;0.000;0.000;2024-01-30T06:19:39;1.00;;;0.50;;
27015;SDS011;14557;0.000;0.000;2024-01-30T06:22:06;1.17;;;0.35;;
27015;SDS011;14557;0.000;0.000;2024-01-30T06:24:31;2.25;;;0.70;;
27015;SDS011;14557;0.000;0.000;2024-01-30T06:26:58;1.60;;;0.65;;
27015;SDS011;14557;0.000;0.000;2024-01-30T06:29:24;1.10;;;0.50;;
27015;SDS011;14557;0.000;0.000;2024-01-30T06:31:51;0.75;;;0.40;;
27015;SDS011;14557;0.000;0.000;2024-01-30T06:34:17;0.82;;;0.35;;
27015;SDS011;14557;0.000;0.000;2024-01-30T06:36:44;2.60;;;0.60;;
27015;SDS011;14557;0.000;0.000;2024-01-30T06:39:09;1.65;;;0.65;;
27015;SDS011;14557;0.000;0.000;2024-01-30T06:41:35;1.42;;;0.60;;
27015;SDS011;14557;0.000;0.000;2024-01-30T06:44:04;1.13;;;0.60;;
27015;SDS011;14557;0.000;0.000;2024-01-30T06:46:31;2.17;;;0.63;;
27015;SDS011;14557;0.000;0.000;2024-01-30T06:48:57;0.93;;;0.30;;
27015;SDS011;14557;0.000;0.000;2024-01-30T06:51:23;1.08;;;0.60;;
27015;SDS011;14557;0.000;0.000;2024-01-30T06:53:49;1.10;;;0.57;;
27015;SDS011;14557;0.000;0.000;2024-01-30T06:56:15;1.92;;;0.63;;
27015;SDS011;14557;0.000;0.000;2024-01-30T06:58:46;1.23;;;0.50;;
27015;SDS011;14557;0.000;0.000;2024-01-30T07:01:12;1.42;;;0.60;;
27015;SDS011;14557;0.000;0.000;2024-01-30T07:03:38;1.52;;;0.47;;
27015;SDS011;14557;0.000;0.000;2024-01-30T07:06:04;1.38;;;0.40;;
27015;SDS011;14557;0.000;0.000;2024-01-30T07:08:29;1.33;;;0.47;;
27015;SDS011;14557;0.000;0.000;2024-01-30T07:10:55;1.98;;;0.43;;
27015;SDS011;14557;0.000;0.000;2024-01-30T07:13:21;1.42;;;0.45;;
27015;SDS011;14557;0.000;0.000;2024-01-30T07:15:47;1.80;;;0.43;;
27015;SDS011;14557;0.000;0.000;2024-01-30T07:18:13;1.60;;;0.52;;
27015;SDS011;14557;0.000;0.000;2024-01-30T07:20:39;1.08;;;0.30;;
27015;SDS011;14557;0.000;0.000;2024-01-30T07:23:14;1.77;;;0.55;;
27015;SDS011;14557;0.000;0.000;2024-01-30T07:25:42;0.73;;;0.30;;
27015;SDS011;14557;0.000;0.000;2024-01-30T07:28:09;2.27;;;0.60;;
27015;SDS011;14557;0.000;0.000;2024-01-30T07:30:35;1.63;;;0.50;;
27015;SDS011;14557;0.000;0.000;2024-01-30T07:33:01;2.72;;;0.70;;
27015;SDS011;14557;0.000;0.000;2024-01-30T07:35:27;1.20;;;0.50;;
27015;SDS011;14557;0.000;0.000;2024-01-30T07:37:53;1.52;;;0.50;;
27015;SDS011;14557;0.000;0.000;2024-01-30T07:40:19;1.40;;;0.38;;
27015;SDS011;14557;0.000;0.000;2024-01-30T07:42:44;1.48;;;0.50;;
27015;SDS011;14557;0.000;0.000;2024-01-30T07:45:10;0.93;;;0.30;;
27015;SDS011;14557;0.000;0.000;2024-01-30T07:47:36;1.30;;;0.52;;
27015;SDS011;14557;0.000;0.000;2024-01-30T07:50:02;1.17;;;0.50;;
27015;SDS011;14557;0.000;0.000;2024-01-30T07:52:28;1.25;;;0.68;;
27015;SDS011;14557;0.000;0.000;2024-01-30T07:54:54;1.52;;;0.60;;
27015;SDS011;14557;0.000;0.000;2024-01-30T07:57:20;1.67;;;0.40;;
27015;SDS011;14557;0.000;0.000;2024-01-30T07:59:46;2.15;;;0.40;;
27015;SDS011;14557;0.000;0.000;2024-01-30T08:02:12;1.05;;;0.40;;
27015;SDS011;14557;0.000;0.000;2024-01-30T08:04:38;1.63;;;0.40;;
27015;SDS011;14557;0.000;0.000;2024-01-30T08:07:04;0.88;;;0.38;;
27015;SDS011;14557;0.000;0.000;2024-01-30T08:09:30;1.15;;;0.40;;
27015;SDS011;14557;0.000;0.000;2024-01-30T08:11:55;1.08;;;0.30;;
27015;SDS011;14557;0.000;0.000;2024-01-30T08:14:21;2.60;;;0.50;;
27015;SDS011;14557;0.000;0.000;2024-01-30T08:16:47;2.60;;;0.50;;
27015;SDS011;14557;0.000;0.000;2024-01-30T08:19:14;1.40;;;0.50;;
27015;SDS011;14557;0.000;0.000;2024-01-30T08:21:40;2.88;;;0.65;;
27015;SDS011;14557;0.000;0.000;2024-01-30T08:24:06;3.65;;;0.80;;
27015;SDS011;14557;0.000;0.000;2024-01-30T08:26:32;1.45;;;0.45;;
27015;SDS011;14557;0.000;0.000;2024-01-30T08:28:59;3.20;;;0.68;;
27015;SDS011;14557;0.000;0.000;2024-01-30T08:31:24;5.43;;;1.30;;
27015;SDS011;14557;0.000;0.000;2024-01-30T08:33:50;6.72;;;1.95;;
27015;SDS011;14557;0.000;0.000;2024-01-30T08:36:16;11.98;;;1.58;;
27015;SDS011;14557;0.000;0.000;2024-01-30T08:38:42;39.80;;;8.35;;
27015;SDS011;14557;0.000;0.000;2024-01-30T08:41:08;14.73;;;3.53;;
27015;SDS011;14557;0.000;0.000;2024-01-30T08:43:34;6.93;;;1.30;;
27015;SDS011;14557;0.000;0.000;2024-01-30T08:46:01;6.97;;;1.40;;
27015;SDS011;14557;0.000;0.000;2024-01-30T08:48:27;3.53;;;1.10;;
27015;SDS011;14557;0.000;0.000;2024-01-30T08:50:53;3.53;;;0.82;;
27015;SDS011;14557;0.000;0.000;2024-01-30T08:53:18;3.90;;;0.90;;
27015;SDS011;14557;0.000;0.000;2024-01-30T08:55:44;6.95;;;1.90;;
27015;SDS011;14557;0.000;0.000;2024-01-30T08:58:10;4.13;;;1.00;;
27015;SDS011;14557;0.000;0.000;2024-01-30T09:00:36;2.20;;;0.68;;
27015;SDS011;14557;0.000;0.000;2024-01-30T09:03:05;2.42;;;0.85;;
27015;SDS011;14557;0.000;0.000;2024-01-30T09:05:31;2.30;;;0.85;;
27015;SDS011;14557;0.000;0.000;2024-01-30T09:07:57;1.95;;;0.70;;
27015;SDS011;14557;0.000;0.000;2024-01-30T09:10:22;2.35;;;0.80;;
27015;SDS011;14557;0.000;0.000;2024-01-30T09:12:48;3.03;;;0.75;;
27015;SDS011;14557;0.000;0.000;2024-01-30T09:15:14;3.55;;;0.90;;
27015;SDS011;14557;0.000;0.000;2024-01-30T09:17:40;4.72;;;0.80;;
27015;SDS011;14557;0.000;0.000;2024-01-30T09:20:06;3.58;;;0.80;;
27015;SDS011;14557;0.000;0.000;2024-01-30T09:22:32;2.97;;;0.85;;
27015;SDS011;14557;0.000;0.000;2024-01-30T09:24:58;5.63;;;0.80;;
27015;SDS011;14557;0.000;0.000;2024-01-30T09:27:24;2.83;;;0.70;;
27015;SDS011;14557;0.000;0.000;2024-01-30T09:29:49;1.15;;;0.40;;
27015;SDS011;14557;0.000;0.000;2024-01-30T09:32:15;2.97;;;0.80;;
27015;SDS011;14557;0.000;0.000;2024-01-30T09:34:42;1.95;;;0.68;;
27015;SDS011;14557;0.000;0.000;2024-01-30T09:37:08;1.63;;;0.50;;
27015;SDS011;14557;0.000;0.000;2024-01-30T09:39:34;2.95;;;0.70;;
27015;SDS011;14557;0.000;0.000;2024-01-30T09:45:01;4.70;;;0.60;;
27015;SDS011;14557;0.000;0.000;2024-01-30T09:47:31;1.50;;;0.70;;
27015;SDS011;14557;0.000;0.000;2024-01-30T09:50:08;2.00;;;0.50;;
27015;SDS011;14557;0.000;0.000;2024-01-30T09:52:35;3.53;;;0.70;;
27015;SDS011;14557;0.000;0.000;2024-01-30T09:55:02;2.72;;;0.93;;
27015;SDS011;14557;0.000;0.000;2024-01-30T09:57:28;2.22;;;0.60;;
27015;SDS011;14557;0.000;0.000;2024-01-30T09:59:54;2.58;;;0.52;;
27015;SDS011;14557;0.000;0.000;2024-01-30T10:02:20;1.85;;;0.70;;
27015;SDS011;14557;0.000;0.000;2024-01-30T10:04:49;2.33;;;0.70;;
27015;SDS011;14557;0.000;0.000;2024-01-30T10:07:15;2.10;;;0.50;;
27015;SDS011;14557;0.000;0.000;2024-01-30T10:09:42;1.80;;;0.60;;
27015;SDS011;14557;0.000;0.000;2024-01-30T10:12:08;2.30;;;0.60;;
27015;SDS011;14557;0.000;0.000;2024-01-30T10:14:37;2.13;;;0.50;;
27015;SDS011;14557;0.000;0.000;2024-01-30T10:17:09;2.70;;;0.70;;
27015;SDS011;14557;0.000;0.000;2024-01-30T10:19:36;2.05;;;0.60;;
27015;SDS011;14557;0.000;0.000;2024-01-30T10:22:05;1.57;;;0.70;;
27015;SDS011;14557;0.000;0.000;2024-01-30T10:24:31;6.63;;;1.05;;
27015;SDS011;14557;0.000;0.000;2024-01-30T10:26:59;2.03;;;0.57;;
27015;SDS011;14557;0.000;0.000;2024-01-30T10:29:24;1.25;;;0.38;;
27015;SDS011;14557;0.000;0.000;2024-01-30T10:32:00;1.25;;;0.50;;
27015;SDS011;14557;0.000;0.000;2024-01-30T10:34:27;1.35;;;0.60;;
27015;SDS011;14557;0.000;0.000;2024-01-30T10:36:59;1.38;;;0.57;;
27015;SDS011;14557;0.000;0.000;2024-01-30T10:39:27;2.28;;;0.85;;
27015;SDS011;14557;0.000;0.000;2024-01-30T10:41:59;3.10;;;0.60;;
27015;SDS011;14557;0.000;0.000;2024-01-30T10:44:29;2.28;;;0.60;;
27015;SDS011;14557;0.000;0.000;2024-01-30T10:47:00;1.58;;;0.65;;
27015;SDS011;14557;0.000;0.000;2024-01-30T10:49:31;0.95;;;0.45;;
27015;SDS011;14557;0.000;0.000;2024-01-30T10:51:58;2.67;;;0.50;;
27015;SDS011;14557;0.000;0.000;2024-01-30T10:54:25;3.00;;;0.55;;
27015;SDS011;14557;0.000;0.000;2024-01-30T10:56:52;1.75;;;0.70;;
27015;SDS011;14557;0.000;0.000;2024-01-30T10:59:18;4.97;;;0.60;;
27015;SDS011;14557;0.000;0.000;2024-01-30T11:01:46;4.20;;;0.60;;
27015;SDS011;14557;0.000;0.000;2024-01-30T11:04:12;3.05;;;0.73;;
27015;SDS011;14557;0.000;0.000;2024-01-30T11:06:41;1.55;;;0.60;;
27015;SDS011;14557;0.000;0.000;2024-01-30T11:09:11;2.22;;;0.50;;
27015;SDS011;14557;0.000;0.000;2024-01-30T11:14:37;1.73;;;0.60;;
27015;SDS011;14557;0.000;0.000;2024-01-30T11:17:05;1.85;;;0.50;;
27015;SDS011;14557;0.000;0.000;2024-01-30T11:19:31;2.50;;;0.63;;
27015;SDS011;14557;0.000;0.000;2024-01-30T11:21:58;2.90;;;0.70;;
27015;SDS011;14557;0.000;0.000;2024-01-30T11:24:25;2.80;;;0.70;;
27015;SDS011;14557;0.000;0.000;2024-01-30T11:27:01;1.92;;;0.40;;
27015;SDS011;14557;0.000;0.000;2024-01-30T11:29:33;2.03;;;0.47;;
27015;SDS011;14557;0.000;0.000;2024-01-30T11:34:26;2.40;;;1.00;;
27015;SDS011;14557;0.000;0.000;2024-01-30T11:36:58;1.00;;;0.43;;
27015;SDS011;14557;0.000;0.000;2024-01-30T11:39:29;2.15;;;0.60;;
27015;SDS011;14557;0.000;0.000;2024-01-30T11:41:55;2.50;;;0.80;;
27015;SDS011;14557;0.000;0.000;2024-01-30T11:44:22;1.33;;;0.50;;
27015;SDS011;14557;0.000;0.000;2024-01-30T11:46:48;2.72;;;0.70;;
27015;SDS011;14557;0.000;0.000;2024-01-30T11:49:18;2.00;;;0.50;;
27015;SDS011;14557;0.000;0.000;2024-01-30T11:51:47;1.83;;;0.60;;
27015;SDS011;14557;0.000;0.000;2024-01-30T11:54:14;2.45;;;0.88;;
27015;SDS011;14557;0.000;0.000;2024-01-30T11:56:41;1.85;;;0.55;;
27015;SDS011;14557;0.000;0.000;2024-01-30T11:59:08;2.03;;;0.52;;
27015;SDS011;14557;0.000;0.000;2024-01-30T12:01:34;1.98;;;0.88;;
27015;SDS011;14557;0.000;0.000;2024-01-30T12:04:00;1.38;;;0.73;;
27015;SDS011;14557;0.000;0.000;2024-01-30T12:06:26;1.85;;;0.70;;
27015;SDS011;14557;0.000;0.000;2024-01-30T12:08:58;1.98;;;0.60;;
27015;SDS011;14557;0.000;0.000;2024-01-30T12:11:26;1.60;;;0.70;;
27015;SDS011;14557;0.000;0.000;2024-01-30T12:13:52;2.60;;;0.70;;
27015;SDS011;14557;0.000;0.000;2024-01-30T12:16:19;2.60;;;0.50;;
27015;SDS011;14557;0.000;0.000;2024-01-30T12:18:45;1.37;;;0.50;;
27015;SDS011;14557;0.000;0.000;2024-01-30T12:21:11;1.70;;;0.80;;
27015;SDS011;14557;0.000;0.000;2024-01-30T12:23:37;2.10;;;0.70;;
27015;SDS011;14557;0.000;0.000;2024-01-30T12:26:03;1.88;;;0.55;;
27015;SDS011;14557;0.000;0.000;2024-01-30T12:28:32;1.90;;;0.60;;
27015;SDS011;14557;0.000;0.000;2024-01-30T12:31:01;2.50;;;0.60;;
27015;SDS011;14557;0.000;0.000;2024-01-30T12:33:28;1.38;;;0.50;;
27015;SDS011;14557;0.000;0.000;2024-01-30T12:35:54;1.33;;;0.60;;
27015;SDS011;14557;0.000;0.000;2024-01-30T12:38:21;1.60;;;0.63;;
27015;SDS011;14557;0.000;0.000;2024-01-30T12:40:48;5.28;;;1.00;;
27015;SDS011;14557;0.000;0.000;2024-01-30T12:43:14;3.17;;;0.85;;
27015;SDS011;14557;0.000;0.000;2024-01-30T12:45:41;5.18;;;3.28;;
27015;SDS011;14557;0.000;0.000;2024-01-30T12:48:07;2.10;;;1.15;;
27015;SDS011;14557;0.000;0.000;2024-01-30T12:50:34;14.30;;;6.75;;
27015;SDS011;14557;0.000;0.000;2024-01-30T12:52:59;33.17;;;7.00;;
27015;SDS011;14557;0.000;0.000;2024-01-30T12:55:25;9.18;;;2.20;;
27015;SDS011;14557;0.000;0.000;2024-01-30T12:57:53;3.78;;;1.13;;
27015;SDS011;14557;0.000;0.000;2024-01-30T13:00:20;4.75;;;1.25;;
27015;SDS011;14557;0.000;0.000;2024-01-30T13:02:45;4.60;;;1.10;;
27015;SDS011;14557;0.000;0.000;2024-01-30T13:05:13;2.78;;;0.80;;
27015;SDS011;14557;0.000;0.000;2024-01-30T13:07:38;4.25;;;1.00;;
27015;SDS011;14557;0.000;0.000;2024-01-30T13:10:04;1.63;;;0.80;;
27015;SDS011;14557;0.000;0.000;2024-01-30T13:12:31;2.57;;;0.90;;
27015;SDS011;14557;0.000;0.000;2024-01-30T13:14:58;4.50;;;0.90;;
27015;SDS011;14557;0.000;0.000;2024-01-30T13:17:26;4.13;;;1.05;;
27015;SDS011;14557;0.000;0.000;2024-01-30T13:19:55;3.03;;;0.90;;
27015;SDS011;14557;0.000;0.000;2024-01-30T13:22:21;1.60;;;0.73;;
27015;SDS011;14557;0.000;0.000;2024-01-30T13:24:47;1.38;;;0.57;;
27015;SDS011;14557;0.000;0.000;2024-01-30T13:27:13;2.55;;;0.90;;
27015;SDS011;14557;0.000;0.000;2024-01-30T13:29:39;1.90;;;0.70;;
27015;SDS011;14557;0.000;0.000;2024-01-30T13:32:04;2.60;;;0.75;;
27015;SDS011;14557;0.000;0.000;2024-01-30T13:34:30;1.70;;;0.60;;
27015;SDS011;14557;0.000;0.000;2024-01-30T13:36:56;2.30;;;0.68;;
27015;SDS011;14557;0.000;0.000;2024-01-30T13:39:22;2.67;;;0.70;;
27015;SDS011;14557;0.000;0.000;2024-01-30T13:41:48;3.38;;;0.70;;
27015;SDS011;14557;0.000;0.000;2024-01-30T13:44:15;2.17;;;0.75;;
27015;SDS011;14557;0.000;0.000;2024-01-30T13:49:08;1.33;;;0.55;;
27015;SDS011;14557;0.000;0.000;2024-01-30T13:51:33;3.35;;;0.77;;
27015;SDS011;14557;0.000;0.000;2024-01-30T13:53:59;2.00;;;0.80;;
27015;SDS011;14557;0.000;0.000;2024-01-30T13:56:25;1.40;;;0.73;;
27015;SDS011;14557;0.000;0.000;2024-01-30T13:58:51;3.20;;;0.95;;
27015;SDS011;14557;0.000;0.000;2024-01-30T14:01:17;3.35;;;1.00;;
27015;SDS011;14557;0.000;0.000;2024-01-30T14:03:43;2.50;;;1.40;;
27015;SDS011;14557;0.000;0.000;2024-01-30T14:06:09;2.72;;;1.50;;
27015;SDS011;14557;0.000;0.000;2024-01-30T14:08:36;2.80;;;1.77;;
27015;SDS011;14557;0.000;0.000;2024-01-30T14:11:02;3.10;;;1.95;;
27015;SDS011;14557;0.000;0.000;2024-01-30T14:13:28;3.42;;;2.25;;
27015;SDS011;14557;0.000;0.000;2024-01-30T14:15:55;3.17;;;1.90;;
27015;SDS011;14557;0.000;0.000;2024-01-30T14:18:21;3.47;;;1.60;;
27015;SDS011;14557;0.000;0.000;2024-01-30T14:20:47;2.78;;;1.90;;
27015;SDS011;14557;0.000;0.000;2024-01-30T14:23:13;3.25;;;1.65;;
27015;SDS011;14557;0.000;0.000;2024-01-30T14:25:39;2.95;;;1.77;;
27015;SDS011;14557;0.000;0.000;2024-01-30T14:28:05;3.15;;;1.85;;
27015;SDS011;14557;0.000;0.000;2024-01-30T14:30:31;3.47;;;1.90;;
27015;SDS011;14557;0.000;0.000;2024-01-30T14:32:56;3.65;;;2.00;;
27015;SDS011;14557;0.000;0.000;2024-01-30T14:35:22;2.85;;;1.98;;
27015;SDS011;14557;0.000;0.000;2024-01-30T14:37:48;5.15;;;2.95;;
27015;SDS011;14557;0.000;0.000;2024-01-30T14:40:14;3.90;;;2.58;;
27015;SDS011;14557;0.000;0.000;2024-01-30T14:42:40;3.92;;;2.20;;
27015;SDS011;14557;0.000;0.000;2024-01-30T14:45:06;4.32;;;2.80;;
27015;SDS011;14557;0.000;0.000;2024-01-30T14:47:32;3.97;;;2.20;;
27015;SDS011;14557;0.000;0.000;2024-01-30T14:49:58;3.90;;;2.37;;
27015;SDS011;14557;0.000;0.000;2024-01-30T14:52:24;3.17;;;1.95;;
27015;SDS011;14557;0.000;0.000;2024-01-30T14:54:50;4.57;;;2.10;;
27015;SDS011;14557;0.000;0.000;2024-01-30T14:57:16;3.38;;;2.10;;
27015;SDS011;14557;0.000;0.000;2024-01-30T14:59:42;3.45;;;2.38;;
27015;SDS011;14557;0.000;0.000;2024-01-30T15:02:08;3.38;;;1.75;;
27015;SDS011;14557;0.000;0.000;2024-01-30T15:04:34;2.90;;;1.90;;
27015;SDS011;14557;0.000;0.000;2024-01-30T15:07:00;2.90;;;1.80;;
27015;SDS011;14557;0.000;0.000;2024-01-30T15:09:26;3.67;;;1.98;;